sensor_id;sensor_type;location;lat;lon;timestamp;temperature;humidity
75363;DHT22;64122;51.988;5.892;2022-11-21T00:00:54;5.64;70.65
75363;DHT22;64122;51.988;5.892;2022-11-21T00:03:26;5.56;70.70
75363;DHT22;64122;51.988;5.892;2022-11-21T00:05:55;5.51;70.78
75363;DHT22;64122;51.988;5.892;2022-11-21T00:08:24;5.51;70.84
75363;DHT22;64122;51.988;5.892;2022-11-21T00:10:58;5.52;70.58
75363;DHT22;64122;51.988;5.892;2022-11-21T00:13:27;5.38;71.12
75363;DHT22;64122;51.988;5.892;2022-11-21T00:16:02;5.48;70.72
75363;DHT22;64122;51.988;5.892;2022-11-21T00:18:35;5.52;70.63
75363;DHT22;64122;51.988;5.892;2022-11-21T00:21:05;5.56;70.44
75363;DHT22;64122;51.988;5.892;2022-11-21T00:23:34;5.60;70.27
75363;DHT22;64122;51.988;5.892;2022-11-21T00:26:04;5.60;70.29
75363;DHT22;64122;51.988;5.892;2022-11-21T00:28:34;5.57;70.38
75363;DHT22;64122;51.988;5.892;2022-11-21T00:31:04;5.60;70.29
75363;DHT22;64122;51.988;5.892;2022-11-21T00:33:36;5.59;70.24
75363;DHT22;64122;51.988;5.892;2022-11-21T00:36:06;5.61;70.45
75363;DHT22;64122;51.988;5.892;2022-11-21T00:38:36;5.66;70.31
75363;DHT22;64122;51.988;5.892;2022-11-21T00:41:05;5.66;70.10
75363;DHT22;64122;51.988;5.892;2022-11-21T00:43:35;5.67;70.13
75363;DHT22;64122;51.988;5.892;2022-11-21T00:46:05;5.67;70.06
75363;DHT22;64122;51.988;5.892;2022-11-21T00:48:37;5.67;69.97
75363;DHT22;64122;51.988;5.892;2022-11-21T00:51:06;5.67;69.94
75363;DHT22;64122;51.988;5.892;2022-11-21T00:53:36;5.70;70.02
75363;DHT22;64122;51.988;5.892;2022-11-21T00:56:05;5.75;69.83
75363;DHT22;64122;51.988;5.892;2022-11-21T00:58:34;5.75;69.83
75363;DHT22;64122;51.988;5.892;2022-11-21T01:01:05;5.74;69.80
75363;DHT22;64122;51.988;5.892;2022-11-21T01:03:38;5.77;69.73
75363;DHT22;64122;51.988;5.892;2022-11-21T01:06:10;5.77;69.75
75363;DHT22;64122;51.988;5.892;2022-11-21T01:08:41;5.80;69.95
75363;DHT22;64122;51.988;5.892;2022-11-21T01:11:12;5.80;69.67
75363;DHT22;64122;51.988;5.892;2022-11-21T01:13:43;5.79;69.59
75363;DHT22;64122;51.988;5.892;2022-11-21T01:16:14;5.74;69.55
75363;DHT22;64122;51.988;5.892;2022-11-21T01:18:46;5.71;69.52
75363;DHT22;64122;51.988;5.892;2022-11-21T01:21:17;5.69;69.58
75363;DHT22;64122;51.988;5.892;2022-11-21T01:23:47;5.69;69.62
75363;DHT22;64122;51.988;5.892;2022-11-21T01:26:19;5.66;69.68
75363;DHT22;64122;51.988;5.892;2022-11-21T01:28:49;5.66;69.81
75363;DHT22;64122;51.988;5.892;2022-11-21T01:31:20;5.60;69.88
75363;DHT22;64122;51.988;5.892;2022-11-21T01:33:53;5.56;69.92
75363;DHT22;64122;51.988;5.892;2022-11-21T01:36:24;5.56;69.86
75363;DHT22;64122;51.988;5.892;2022-11-21T01:38:55;5.59;70.02
75363;DHT22;64122;51.988;5.892;2022-11-21T01:41:26;5.60;69.71
75363;DHT22;64122;51.988;5.892;2022-11-21T01:43:56;5.61;69.83
75363;DHT22;64122;51.988;5.892;2022-11-21T01:46:26;5.59;69.71
75363;DHT22;64122;51.988;5.892;2022-11-21T01:49:02;5.60;69.92
75363;DHT22;64122;51.988;5.892;2022-11-21T01:51:36;5.59;69.86
75363;DHT22;64122;51.988;5.892;2022-11-21T01:54:11;5.55;69.82
75363;DHT22;64122;51.988;5.892;2022-11-21T01:56:45;5.60;70.02
75363;DHT22;64122;51.988;5.892;2022-11-21T01:59:20;5.60;69.62
75363;DHT22;64122;51.988;5.892;2022-11-21T02:01:53;5.56;69.49
75363;DHT22;64122;51.988;5.892;2022-11-21T02:04:27;5.55;69.70
75363;DHT22;64122;51.988;5.892;2022-11-21T02:06:59;5.56;69.52
75363;DHT22;64122;51.988;5.892;2022-11-21T02:09:31;5.55;69.44
75363;DHT22;64122;51.988;5.892;2022-11-21T02:12:05;5.52;69.51
75363;DHT22;64122;51.988;5.892;2022-11-21T02:14:37;5.57;69.69
75363;DHT22;64122;51.988;5.892;2022-11-21T02:17:08;5.61;69.71
75363;DHT22;64122;51.988;5.892;2022-11-21T02:19:46;5.59;69.61
75363;DHT22;64122;51.988;5.892;2022-11-21T02:22:25;5.60;69.58
75363;DHT22;64122;51.988;5.892;2022-11-21T02:25:09;5.62;69.50
75363;DHT22;64122;51.988;5.892;2022-11-21T02:27:40;5.63;69.32
75363;DHT22;64122;51.988;5.892;2022-11-21T02:30:10;5.64;69.43
75363;DHT22;64122;51.988;5.892;2022-11-21T02:32:41;5.66;69.26
75363;DHT22;64122;51.988;5.892;2022-11-21T02:35:13;5.71;69.42
75363;DHT22;64122;51.988;5.892;2022-11-21T02:37:44;5.72;69.28
75363;DHT22;64122;51.988;5.892;2022-11-21T02:40:21;5.76;69.24
75363;DHT22;64122;51.988;5.892;2022-11-21T02:42:58;5.78;69.42
75363;DHT22;64122;51.988;5.892;2022-11-21T02:45:30;5.79;69.43
75363;DHT22;64122;51.988;5.892;2022-11-21T02:48:01;5.83;69.59
75363;DHT22;64122;51.988;5.892;2022-11-21T02:50:31;5.83;69.80
75363;DHT22;64122;51.988;5.892;2022-11-21T02:53:02;5.77;70.03
75363;DHT22;64122;51.988;5.892;2022-11-21T02:55:34;5.75;69.71
75363;DHT22;64122;51.988;5.892;2022-11-21T02:58:04;5.72;69.75
75363;DHT22;64122;51.988;5.892;2022-11-21T03:00:35;5.69;69.78
75363;DHT22;64122;51.988;5.892;2022-11-21T03:03:04;5.64;70.06
75363;DHT22;64122;51.988;5.892;2022-11-21T03:05:34;5.62;70.13
75363;DHT22;64122;51.988;5.892;2022-11-21T03:08:04;5.55;70.48
75363;DHT22;64122;51.988;5.892;2022-11-21T03:10:36;5.47;70.52
75363;DHT22;64122;51.988;5.892;2022-11-21T03:13:05;5.41;70.87
75363;DHT22;64122;51.988;5.892;2022-11-21T03:15:35;5.40;71.01
75363;DHT22;64122;51.988;5.892;2022-11-21T03:18:04;5.42;70.93
75363;DHT22;64122;51.988;5.892;2022-11-21T03:20:33;5.40;71.10
75363;DHT22;64122;51.988;5.892;2022-11-21T03:23:03;5.41;70.74
75363;DHT22;64122;51.988;5.892;2022-11-21T03:25:34;5.45;70.80
75363;DHT22;64122;51.988;5.892;2022-11-21T03:28:04;5.46;70.92
75363;DHT22;64122;51.988;5.892;2022-11-21T03:30:33;5.41;71.01
75363;DHT22;64122;51.988;5.892;2022-11-21T03:33:02;5.39;71.20
75363;DHT22;64122;51.988;5.892;2022-11-21T03:35:31;5.39;71.24
75363;DHT22;64122;51.988;5.892;2022-11-21T03:38:01;5.40;71.13
75363;DHT22;64122;51.988;5.892;2022-11-21T03:40:30;5.35;71.18
75363;DHT22;64122;51.988;5.892;2022-11-21T03:43:05;5.28;71.26
75363;DHT22;64122;51.988;5.892;2022-11-21T03:45:34;5.25;71.45
75363;DHT22;64122;51.988;5.892;2022-11-21T03:48:04;5.30;71.53
75363;DHT22;64122;51.988;5.892;2022-11-21T03:50:33;5.35;71.16
75363;DHT22;64122;51.988;5.892;2022-11-21T03:53:02;5.31;71.35
75363;DHT22;64122;51.988;5.892;2022-11-21T03:55:32;5.35;71.32
75363;DHT22;64122;51.988;5.892;2022-11-21T03:58:01;5.38;71.07
75363;DHT22;64122;51.988;5.892;2022-11-21T04:00:33;5.37;71.13
75363;DHT22;64122;51.988;5.892;2022-11-21T04:03:02;5.40;71.20
75363;DHT22;64122;51.988;5.892;2022-11-21T04:05:31;5.43;71.14
75363;DHT22;64122;51.988;5.892;2022-11-21T04:08:00;5.50;71.00
75363;DHT22;64122;51.988;5.892;2022-11-21T04:10:30;5.54;71.03
75363;DHT22;64122;51.988;5.892;2022-11-21T04:12:59;5.56;71.00
75363;DHT22;64122;51.988;5.892;2022-11-21T04:15:28;5.61;70.90
75363;DHT22;64122;51.988;5.892;2022-11-21T04:18:00;5.64;70.79
75363;DHT22;64122;51.988;5.892;2022-11-21T04:20:29;5.67;70.62
75363;DHT22;64122;51.988;5.892;2022-11-21T04:22:58;5.68;70.48
75363;DHT22;64122;51.988;5.892;2022-11-21T04:25:28;5.67;70.44
75363;DHT22;64122;51.988;5.892;2022-11-21T04:27:58;5.69;70.48
75363;DHT22;64122;51.988;5.892;2022-11-21T04:30:28;5.71;70.69
75363;DHT22;64122;51.988;5.892;2022-11-21T04:33:00;5.72;70.33
75363;DHT22;64122;51.988;5.892;2022-11-21T04:35:29;5.72;70.52
75363;DHT22;64122;51.988;5.892;2022-11-21T04:37:58;5.72;70.69
75363;DHT22;64122;51.988;5.892;2022-11-21T04:40:28;5.71;70.67
75363;DHT22;64122;51.988;5.892;2022-11-21T04:42:57;5.70;70.77
75363;DHT22;64122;51.988;5.892;2022-11-21T04:45:26;5.69;70.72
75363;DHT22;64122;51.988;5.892;2022-11-21T04:47:55;5.69;70.67
75363;DHT22;64122;51.988;5.892;2022-11-21T04:50:27;5.70;70.71
75363;DHT22;64122;51.988;5.892;2022-11-21T04:52:56;5.72;70.52
75363;DHT22;64122;51.988;5.892;2022-11-21T04:55:29;5.69;70.56
75363;DHT22;64122;51.988;5.892;2022-11-21T04:57:59;5.65;70.76
75363;DHT22;64122;51.988;5.892;2022-11-21T05:00:28;5.64;70.90
75363;DHT22;64122;51.988;5.892;2022-11-21T05:03:01;5.63;70.76
75363;DHT22;64122;51.988;5.892;2022-11-21T05:05:33;5.60;70.87
75363;DHT22;64122;51.988;5.892;2022-11-21T05:08:03;5.55;71.13
75363;DHT22;64122;51.988;5.892;2022-11-21T05:10:32;5.57;70.86
75363;DHT22;64122;51.988;5.892;2022-11-21T05:13:22;5.55;71.07
75363;DHT22;64122;51.988;5.892;2022-11-21T05:15:54;5.59;71.08
75363;DHT22;64122;51.988;5.892;2022-11-21T05:18:24;5.56;71.07
75363;DHT22;64122;51.988;5.892;2022-11-21T05:20:56;5.57;71.15
75363;DHT22;64122;51.988;5.892;2022-11-21T05:23:25;5.63;71.05
75363;DHT22;64122;51.988;5.892;2022-11-21T05:25:54;5.63;71.09
75363;DHT22;64122;51.988;5.892;2022-11-21T05:28:24;5.68;71.00
75363;DHT22;64122;51.988;5.892;2022-11-21T05:30:53;5.67;71.00
75363;DHT22;64122;51.988;5.892;2022-11-21T05:33:23;5.70;71.00
75363;DHT22;64122;51.988;5.892;2022-11-21T05:35:52;5.69;70.84
75363;DHT22;64122;51.988;5.892;2022-11-21T05:38:24;5.71;70.91
75363;DHT22;64122;51.988;5.892;2022-11-21T05:40:53;5.74;70.93
75363;DHT22;64122;51.988;5.892;2022-11-21T05:43:22;5.75;70.97
75363;DHT22;64122;51.988;5.892;2022-11-21T05:46:04;5.70;71.10
75363;DHT22;64122;51.988;5.892;2022-11-21T05:48:33;5.70;71.14
75363;DHT22;64122;51.988;5.892;2022-11-21T05:51:02;5.69;71.22
75363;DHT22;64122;51.988;5.892;2022-11-21T05:53:34;5.70;71.29
75363;DHT22;64122;51.988;5.892;2022-11-21T05:56:06;5.71;71.39
75363;DHT22;64122;51.988;5.892;2022-11-21T05:58:35;5.72;71.38
75363;DHT22;64122;51.988;5.892;2022-11-21T06:01:05;5.70;71.55
75363;DHT22;64122;51.988;5.892;2022-11-21T06:03:36;5.67;71.62
75363;DHT22;64122;51.988;5.892;2022-11-21T06:06:05;5.67;71.61
75363;DHT22;64122;51.988;5.892;2022-11-21T06:08:39;5.67;71.61
75363;DHT22;64122;51.988;5.892;2022-11-21T06:11:10;5.69;71.49
75363;DHT22;64122;51.988;5.892;2022-11-21T06:13:40;5.67;71.70
75363;DHT22;64122;51.988;5.892;2022-11-21T06:16:11;5.62;71.93
75363;DHT22;64122;51.988;5.892;2022-11-21T06:18:42;5.60;72.02
75363;DHT22;64122;51.988;5.892;2022-11-21T06:21:14;5.61;71.90
75363;DHT22;64122;51.988;5.892;2022-11-21T06:23:48;5.60;71.97
75363;DHT22;64122;51.988;5.892;2022-11-21T06:26:20;5.62;71.96
75363;DHT22;64122;51.988;5.892;2022-11-21T06:28:49;5.66;71.90
75363;DHT22;64122;51.988;5.892;2022-11-21T06:31:21;5.68;71.85
75363;DHT22;64122;51.988;5.892;2022-11-21T06:33:51;5.68;71.87
75363;DHT22;64122;51.988;5.892;2022-11-21T06:36:21;5.65;71.87
75363;DHT22;64122;51.988;5.892;2022-11-21T06:38:55;5.66;71.77
75363;DHT22;64122;51.988;5.892;2022-11-21T06:41:26;5.65;71.84
75363;DHT22;64122;51.988;5.892;2022-11-21T06:43:57;5.54;72.06
75363;DHT22;64122;51.988;5.892;2022-11-21T06:46:26;5.63;71.85
75363;DHT22;64122;51.988;5.892;2022-11-21T06:48:56;5.67;71.93
75363;DHT22;64122;51.988;5.892;2022-11-21T06:51:25;5.69;71.85
75363;DHT22;64122;51.988;5.892;2022-11-21T06:53:57;5.74;71.76
75363;DHT22;64122;51.988;5.892;2022-11-21T06:56:29;5.76;71.81
75363;DHT22;64122;51.988;5.892;2022-11-21T06:58:58;5.74;71.90
75363;DHT22;64122;51.988;5.892;2022-11-21T07:01:28;5.72;72.00
75363;DHT22;64122;51.988;5.892;2022-11-21T07:03:57;5.72;72.06
75363;DHT22;64122;51.988;5.892;2022-11-21T07:06:26;5.75;72.07
75363;DHT22;64122;51.988;5.892;2022-11-21T07:08:58;5.75;71.93
75363;DHT22;64122;51.988;5.892;2022-11-21T07:11:27;5.78;72.06
75363;DHT22;64122;51.988;5.892;2022-11-21T07:13:56;5.79;72.25
75363;DHT22;64122;51.988;5.892;2022-11-21T07:16:23;5.82;72.11
75363;DHT22;64122;51.988;5.892;2022-11-21T07:18:55;5.84;72.08
75363;DHT22;64122;51.988;5.892;2022-11-21T07:21:25;5.84;72.10
75363;DHT22;64122;51.988;5.892;2022-11-21T07:23:55;5.84;72.03
75363;DHT22;64122;51.988;5.892;2022-11-21T07:26:26;5.84;71.95
75363;DHT22;64122;51.988;5.892;2022-11-21T07:28:57;5.83;71.93
75363;DHT22;64122;51.988;5.892;2022-11-21T07:31:26;5.86;71.88
75363;DHT22;64122;51.988;5.892;2022-11-21T07:33:55;5.86;71.87
75363;DHT22;64122;51.988;5.892;2022-11-21T07:36:27;5.89;71.81
75363;DHT22;64122;51.988;5.892;2022-11-21T07:38:57;5.87;71.84
75363;DHT22;64122;51.988;5.892;2022-11-21T07:41:30;5.84;71.92
75363;DHT22;64122;51.988;5.892;2022-11-21T07:44:00;5.85;72.04
75363;DHT22;64122;51.988;5.892;2022-11-21T07:46:29;5.87;71.96
75363;DHT22;64122;51.988;5.892;2022-11-21T07:48:58;5.89;72.00
75363;DHT22;64122;51.988;5.892;2022-11-21T07:51:28;5.91;71.93
75363;DHT22;64122;51.988;5.892;2022-11-21T07:53:57;5.95;71.99
75363;DHT22;64122;51.988;5.892;2022-11-21T07:56:26;5.98;71.99
75363;DHT22;64122;51.988;5.892;2022-11-21T07:58:58;6.00;71.96
75363;DHT22;64122;51.988;5.892;2022-11-21T08:01:27;5.96;72.13
75363;DHT22;64122;51.988;5.892;2022-11-21T08:03:56;6.01;72.16
75363;DHT22;64122;51.988;5.892;2022-11-21T08:06:26;6.05;72.06
75363;DHT22;64122;51.988;5.892;2022-11-21T08:08:55;6.11;71.84
75363;DHT22;64122;51.988;5.892;2022-11-21T08:11:24;6.14;71.69
75363;DHT22;64122;51.988;5.892;2022-11-21T08:13:53;6.16;71.80
75363;DHT22;64122;51.988;5.892;2022-11-21T08:16:25;6.16;71.87
75363;DHT22;64122;51.988;5.892;2022-11-21T08:18:58;6.15;71.77
75363;DHT22;64122;51.988;5.892;2022-11-21T08:21:27;6.10;71.88
75363;DHT22;64122;51.988;5.892;2022-11-21T08:23:58;6.05;72.09
75363;DHT22;64122;51.988;5.892;2022-11-21T08:26:28;6.07;72.03
75363;DHT22;64122;51.988;5.892;2022-11-21T08:28:57;6.00;72.29
75363;DHT22;64122;51.988;5.892;2022-11-21T08:31:29;5.94;72.32
75363;DHT22;64122;51.988;5.892;2022-11-21T08:33:58;5.92;72.50
75363;DHT22;64122;51.988;5.892;2022-11-21T08:36:27;5.87;72.48
75363;DHT22;64122;51.988;5.892;2022-11-21T08:38:56;5.87;72.70
75363;DHT22;64122;51.988;5.892;2022-11-21T08:41:26;5.86;72.85
75363;DHT22;64122;51.988;5.892;2022-11-21T08:44:07;5.93;72.80
75363;DHT22;64122;51.988;5.892;2022-11-21T08:46:40;5.90;72.58
75363;DHT22;64122;51.988;5.892;2022-11-21T08:49:09;5.89;72.98
75363;DHT22;64122;51.988;5.892;2022-11-21T08:51:38;5.96;72.80
75363;DHT22;64122;51.988;5.892;2022-11-21T08:54:08;6.04;72.68
75363;DHT22;64122;51.988;5.892;2022-11-21T08:56:37;6.07;72.61
75363;DHT22;64122;51.988;5.892;2022-11-21T08:59:06;6.15;72.46
75363;DHT22;64122;51.988;5.892;2022-11-21T09:01:39;6.22;72.45
75363;DHT22;64122;51.988;5.892;2022-11-21T09:04:08;6.16;72.61
75363;DHT22;64122;51.988;5.892;2022-11-21T09:06:38;6.13;72.80
75363;DHT22;64122;51.988;5.892;2022-11-21T09:09:07;6.12;72.86
75363;DHT22;64122;51.988;5.892;2022-11-21T09:11:36;6.09;73.03
75363;DHT22;64122;51.988;5.892;2022-11-21T09:14:05;6.12;73.13
75363;DHT22;64122;51.988;5.892;2022-11-21T09:16:49;6.20;72.87
75363;DHT22;64122;51.988;5.892;2022-11-21T09:19:31;6.26;72.67
75363;DHT22;64122;51.988;5.892;2022-11-21T09:22:00;6.34;72.72
75363;DHT22;64122;51.988;5.892;2022-11-21T09:24:30;6.34;72.81
75363;DHT22;64122;51.988;5.892;2022-11-21T09:26:59;6.36;72.80
75363;DHT22;64122;51.988;5.892;2022-11-21T09:29:30;6.39;72.70
75363;DHT22;64122;51.988;5.892;2022-11-21T09:32:02;6.43;72.68
75363;DHT22;64122;51.988;5.892;2022-11-21T09:34:32;6.43;72.75
75363;DHT22;64122;51.988;5.892;2022-11-21T09:37:01;6.37;73.06
75363;DHT22;64122;51.988;5.892;2022-11-21T09:39:30;6.37;73.19
75363;DHT22;64122;51.988;5.892;2022-11-21T09:42:11;6.41;73.19
75363;DHT22;64122;51.988;5.892;2022-11-21T09:44:57;6.57;72.95
75363;DHT22;64122;51.988;5.892;2022-11-21T09:47:34;6.71;72.74
75363;DHT22;64122;51.988;5.892;2022-11-21T09:50:15;6.72;72.61
75363;DHT22;64122;51.988;5.892;2022-11-21T09:52:50;6.68;72.81
75363;DHT22;64122;51.988;5.892;2022-11-21T09:55:25;6.58;73.22
75363;DHT22;64122;51.988;5.892;2022-11-21T09:57:56;6.51;73.54
75363;DHT22;64122;51.988;5.892;2022-11-21T10:00:29;6.55;73.51
75363;DHT22;64122;51.988;5.892;2022-11-21T10:03:01;6.53;73.75
75363;DHT22;64122;51.988;5.892;2022-11-21T10:05:35;6.56;73.68
75363;DHT22;64122;51.988;5.892;2022-11-21T10:08:15;6.57;73.69
75363;DHT22;64122;51.988;5.892;2022-11-21T10:10:54;6.55;73.85
75363;DHT22;64122;51.988;5.892;2022-11-21T10:13:35;6.59;73.94
75363;DHT22;64122;51.988;5.892;2022-11-21T10:16:14;6.69;73.95
75363;DHT22;64122;51.988;5.892;2022-11-21T10:21:47;6.87;73.67
75363;DHT22;64122;51.988;5.892;2022-11-21T10:24:30;6.91;73.61
75363;DHT22;64122;51.988;5.892;2022-11-21T10:27:11;7.00;73.71
75363;DHT22;64122;51.988;5.892;2022-11-21T10:29:46;7.04;73.69
75363;DHT22;64122;51.988;5.892;2022-11-21T10:32:21;7.05;73.72
75363;DHT22;64122;51.988;5.892;2022-11-21T10:34:56;7.12;73.63
75363;DHT22;64122;51.988;5.892;2022-11-21T10:37:30;7.15;73.60
75363;DHT22;64122;51.988;5.892;2022-11-21T10:40:08;7.23;73.53
75363;DHT22;64122;51.988;5.892;2022-11-21T10:42:43;7.26;73.56
75363;DHT22;64122;51.988;5.892;2022-11-21T10:45:15;7.27;73.71
75363;DHT22;64122;51.988;5.892;2022-11-21T10:47:47;7.29;73.70
75363;DHT22;64122;51.988;5.892;2022-11-21T10:50:34;7.37;73.51
75363;DHT22;64122;51.988;5.892;2022-11-21T10:53:14;7.44;73.56
75363;DHT22;64122;51.988;5.892;2022-11-21T10:56:01;7.53;73.53
75363;DHT22;64122;51.988;5.892;2022-11-21T10:58:40;7.60;73.45
75363;DHT22;64122;51.988;5.892;2022-11-21T11:01:25;7.64;73.36
75363;DHT22;64122;51.988;5.892;2022-11-21T11:04:16;7.70;73.33
75363;DHT22;64122;51.988;5.892;2022-11-21T11:06:49;7.72;73.49
75363;DHT22;64122;51.988;5.892;2022-11-21T11:09:25;7.75;73.52
75363;DHT22;64122;51.988;5.892;2022-11-21T11:12:26;7.82;73.37
75363;DHT22;64122;51.988;5.892;2022-11-21T11:15:16;7.84;73.54
75363;DHT22;64122;51.988;5.892;2022-11-21T11:17:50;7.88;73.63
75363;DHT22;64122;51.988;5.892;2022-11-21T11:20:35;7.94;73.47
75363;DHT22;64122;51.988;5.892;2022-11-21T11:23:26;7.97;73.46
75363;DHT22;64122;51.988;5.892;2022-11-21T11:25:58;8.09;73.51
75363;DHT22;64122;51.988;5.892;2022-11-21T11:28:34;8.22;73.13
75363;DHT22;64122;51.988;5.892;2022-11-21T11:31:03;8.27;73.25
75363;DHT22;64122;51.988;5.892;2022-11-21T11:33:35;8.31;73.10
75363;DHT22;64122;51.988;5.892;2022-11-21T11:36:15;8.41;72.89
75363;DHT22;64122;51.988;5.892;2022-11-21T11:38:52;8.48;72.84
75363;DHT22;64122;51.988;5.892;2022-11-21T11:41:41;8.62;72.48
75363;DHT22;64122;51.988;5.892;2022-11-21T11:44:32;8.87;71.98
75363;DHT22;64122;51.988;5.892;2022-11-21T11:47:21;9.05;71.83
75363;DHT22;64122;51.988;5.892;2022-11-21T11:50:07;9.12;71.56
75363;DHT22;64122;51.988;5.892;2022-11-21T11:52:56;9.10;71.70
75363;DHT22;64122;51.988;5.892;2022-11-21T11:55:34;9.09;71.75
75363;DHT22;64122;51.988;5.892;2022-11-21T11:58:09;9.12;71.77
75363;DHT22;64122;51.988;5.892;2022-11-21T12:00:42;9.18;71.75
75363;DHT22;64122;51.988;5.892;2022-11-21T12:03:18;9.23;71.67
75363;DHT22;64122;51.988;5.892;2022-11-21T12:05:58;9.31;71.47
75363;DHT22;64122;51.988;5.892;2022-11-21T12:08:35;9.35;71.44
75363;DHT22;64122;51.988;5.892;2022-11-21T12:11:22;9.36;71.42
75363;DHT22;64122;51.988;5.892;2022-11-21T12:14:12;9.42;71.29
75363;DHT22;64122;51.988;5.892;2022-11-21T12:17:05;9.47;71.22
75363;DHT22;64122;51.988;5.892;2022-11-21T12:19:36;9.52;71.26
75363;DHT22;64122;51.988;5.892;2022-11-21T12:22:07;9.62;71.19
75363;DHT22;64122;51.988;5.892;2022-11-21T12:24:37;9.70;70.99
75363;DHT22;64122;51.988;5.892;2022-11-21T12:27:20;9.82;70.80
75363;DHT22;64122;51.988;5.892;2022-11-21T12:30:08;9.81;70.91
75363;DHT22;64122;51.988;5.892;2022-11-21T12:32:56;9.81;70.74
75363;DHT22;64122;51.988;5.892;2022-11-21T12:35:43;9.82;70.87
75363;DHT22;64122;51.988;5.892;2022-11-21T12:38:28;9.78;71.21
75363;DHT22;64122;51.988;5.892;2022-11-21T12:41:10;9.70;71.38
75363;DHT22;64122;51.988;5.892;2022-11-21T12:44:03;9.66;71.55
75363;DHT22;64122;51.988;5.892;2022-11-21T12:46:44;9.71;71.57
75363;DHT22;64122;51.988;5.892;2022-11-21T12:49:24;9.79;71.26
75363;DHT22;64122;51.988;5.892;2022-11-21T12:52:13;9.80;71.40
75363;DHT22;64122;51.988;5.892;2022-11-21T12:58:05;9.81;71.33
75363;DHT22;64122;51.988;5.892;2022-11-21T13:00:50;9.84;71.35
75363;DHT22;64122;51.988;5.892;2022-11-21T13:03:38;9.84;71.32
75363;DHT22;64122;51.988;5.892;2022-11-21T13:06:14;9.89;71.16
75363;DHT22;64122;51.988;5.892;2022-11-21T13:08:45;9.90;71.01
75363;DHT22;64122;51.988;5.892;2022-11-21T13:11:28;9.84;71.28
75363;DHT22;64122;51.988;5.892;2022-11-21T13:14:16;9.81;71.51
75363;DHT22;64122;51.988;5.892;2022-11-21T13:16:57;9.79;71.49
75363;DHT22;64122;51.988;5.892;2022-11-21T13:19:35;9.81;71.45
75363;DHT22;64122;51.988;5.892;2022-11-21T13:25:12;9.82;71.38
75363;DHT22;64122;51.988;5.892;2022-11-21T13:27:42;9.82;71.32
75363;DHT22;64122;51.988;5.892;2022-11-21T13:30:22;9.83;71.25
75363;DHT22;64122;51.988;5.892;2022-11-21T13:32:54;9.82;71.29
75363;DHT22;64122;51.988;5.892;2022-11-21T13:44:44;9.75;71.15
75363;DHT22;64122;51.988;5.892;2022-11-21T13:50:22;9.71;71.29
75363;DHT22;64122;51.988;5.892;2022-11-21T13:53:01;9.76;71.26
75363;DHT22;64122;51.988;5.892;2022-11-21T13:55:43;9.67;71.71
75363;DHT22;64122;51.988;5.892;2022-11-21T13:58:24;9.79;71.28
75363;DHT22;64122;51.988;5.892;2022-11-21T14:01:16;9.82;71.19
75363;DHT22;64122;51.988;5.892;2022-11-21T14:04:10;9.78;71.34
75363;DHT22;64122;51.988;5.892;2022-11-21T14:06:44;9.74;71.45
75363;DHT22;64122;51.988;5.892;2022-11-21T14:09:33;9.70;71.51
75363;DHT22;64122;51.988;5.892;2022-11-21T14:12:06;9.68;71.60
75363;DHT22;64122;51.988;5.892;2022-11-21T14:14:50;9.57;71.62
75363;DHT22;64122;51.988;5.892;2022-11-21T14:17:33;9.47;71.71
75363;DHT22;64122;51.988;5.892;2022-11-21T14:20:13;9.37;72.07
75363;DHT22;64122;51.988;5.892;2022-11-21T14:22:52;9.31;72.06
75363;DHT22;64122;51.988;5.892;2022-11-21T14:25:32;9.21;72.35
75363;DHT22;64122;51.988;5.892;2022-11-21T14:28:05;9.09;72.61
75363;DHT22;64122;51.988;5.892;2022-11-21T14:30:37;9.02;73.06
75363;DHT22;64122;51.988;5.892;2022-11-21T14:33:22;8.93;73.00
75363;DHT22;64122;51.988;5.892;2022-11-21T14:35:54;8.89;73.32
75363;DHT22;64122;51.988;5.892;2022-11-21T14:38:27;8.86;73.25
75363;DHT22;64122;51.988;5.892;2022-11-21T14:41:23;8.81;73.23
75363;DHT22;64122;51.988;5.892;2022-11-21T14:44:14;8.75;73.43
75363;DHT22;64122;51.988;5.892;2022-11-21T14:46:44;8.73;73.54
75363;DHT22;64122;51.988;5.892;2022-11-21T14:49:22;8.66;73.57
75363;DHT22;64122;51.988;5.892;2022-11-21T14:52:13;8.66;73.56
75363;DHT22;64122;51.988;5.892;2022-11-21T14:54:54;8.65;73.61
75363;DHT22;64122;51.988;5.892;2022-11-21T14:57:26;8.63;73.78
75363;DHT22;64122;51.988;5.892;2022-11-21T14:59:57;8.61;73.75
75363;DHT22;64122;51.988;5.892;2022-11-21T15:02:28;8.59;73.88
75363;DHT22;64122;51.988;5.892;2022-11-21T15:05:00;8.56;73.83
75363;DHT22;64122;51.988;5.892;2022-11-21T15:07:37;8.52;73.90
75363;DHT22;64122;51.988;5.892;2022-11-21T15:10:11;8.51;73.93
75363;DHT22;64122;51.988;5.892;2022-11-21T15:12:47;8.52;73.77
75363;DHT22;64122;51.988;5.892;2022-11-21T15:15:25;8.50;73.80
75363;DHT22;64122;51.988;5.892;2022-11-21T15:17:57;8.55;73.83
75363;DHT22;64122;51.988;5.892;2022-11-21T15:20:28;8.57;73.78
75363;DHT22;64122;51.988;5.892;2022-11-21T15:22:59;8.58;73.79
75363;DHT22;64122;51.988;5.892;2022-11-21T15:25:45;8.63;73.58
75363;DHT22;64122;51.988;5.892;2022-11-21T15:28:15;8.68;73.50
75363;DHT22;64122;51.988;5.892;2022-11-21T15:30:45;8.70;73.49
75363;DHT22;64122;51.988;5.892;2022-11-21T15:33:15;8.72;73.44
75363;DHT22;64122;51.988;5.892;2022-11-21T15:35:50;8.67;73.41
75363;DHT22;64122;51.988;5.892;2022-11-21T15:38:25;8.63;73.52
75363;DHT22;64122;51.988;5.892;2022-11-21T15:41:04;8.58;73.64
75363;DHT22;64122;51.988;5.892;2022-11-21T15:43:39;8.53;73.82
75363;DHT22;64122;51.988;5.892;2022-11-21T15:46:15;8.50;73.84
75363;DHT22;64122;51.988;5.892;2022-11-21T15:48:46;8.46;74.07
75363;DHT22;64122;51.988;5.892;2022-11-21T15:51:16;8.46;74.02
75363;DHT22;64122;51.988;5.892;2022-11-21T15:53:46;8.47;74.08
75363;DHT22;64122;51.988;5.892;2022-11-21T15:56:20;8.48;74.16
75363;DHT22;64122;51.988;5.892;2022-11-21T15:58:50;8.48;74.00
75363;DHT22;64122;51.988;5.892;2022-11-21T16:01:21;8.55;73.99
75363;DHT22;64122;51.988;5.892;2022-11-21T16:03:52;8.59;73.79
75363;DHT22;64122;51.988;5.892;2022-11-21T16:06:21;8.62;73.71
75363;DHT22;64122;51.988;5.892;2022-11-21T16:08:51;8.62;73.70
75363;DHT22;64122;51.988;5.892;2022-11-21T16:11:26;8.59;73.71
75363;DHT22;64122;51.988;5.892;2022-11-21T16:13:57;8.58;73.75
75363;DHT22;64122;51.988;5.892;2022-11-21T16:16:28;8.55;73.86
75363;DHT22;64122;51.988;5.892;2022-11-21T16:18:59;8.51;73.94
75363;DHT22;64122;51.988;5.892;2022-11-21T16:21:28;8.49;73.98
75363;DHT22;64122;51.988;5.892;2022-11-21T16:23:57;8.47;74.11
75363;DHT22;64122;51.988;5.892;2022-11-21T16:26:29;8.43;74.18
75363;DHT22;64122;51.988;5.892;2022-11-21T16:28:59;8.42;74.23
75363;DHT22;64122;51.988;5.892;2022-11-21T16:31:30;8.41;74.25
75363;DHT22;64122;51.988;5.892;2022-11-21T16:34:00;8.39;74.21
75363;DHT22;64122;51.988;5.892;2022-11-21T16:36:30;8.38;74.16
75363;DHT22;64122;51.988;5.892;2022-11-21T16:39:00;8.35;74.27
75363;DHT22;64122;51.988;5.892;2022-11-21T16:41:32;8.33;74.14
75363;DHT22;64122;51.988;5.892;2022-11-21T16:44:01;8.30;74.30
75363;DHT22;64122;51.988;5.892;2022-11-21T16:46:31;8.27;74.36